Time;durP1;ratioP1;P1;durP2;ratioP2;P2;SDS_P1;SDS_P2;PMS_P1;PMS_P2;Temp;Humidity;BMP_temperature;BMP_pressure;BME280_temperature;BME280_humidity;BME280_pressure;Samples;Min_cycle;Max_cycle;Signal;HPM_P1;HPM_P2
2022/05/26 00:00:34;;;;;;;4.75;2.70;;;;;;;14.28;80.62;101656.53;4933430;29;20028;-83
2022/05/26 00:03:00;;;;;;;7.97;2.85;;;;;;;14.28;80.67;101645.94;4937489;29;20031;-84
2022/05/26 00:05:27;;;;;;;5.10;2.75;;;;;;;14.23;80.82;101656.03;4936193;29;20375;-83
2022/05/26 00:07:53;;;;;;;6.82;2.70;;;;;;;14.23;80.79;101653.41;4933588;29;20020;-83
2022/05/26 00:10:18;;;;;;;4.68;2.55;;;;;;;14.22;80.94;101654.34;4935795;29;20362;-83
2022/05/26 00:12:43;;;;;;;8.30;3.00;;;;;;;14.21;80.97;101647.38;4917722;29;20031;-82
2022/05/26 00:15:11;;;;;;;5.20;2.90;;;;;;;14.20;81.24;101656.28;4953011;28;20042;-88
2022/05/26 00:17:36;;;;;;;4.22;2.85;;;;;;;14.19;81.43;101654.59;4951591;29;20038;-89
2022/05/26 00:20:03;;;;;;;8.57;3.10;;;;;;;14.17;81.48;101650.38;4940378;28;20032;-83
2022/05/26 00:22:29;;;;;;;5.82;2.85;;;;;;;14.20;81.42;101656.28;4933446;29;20027;-83
2022/05/26 00:24:54;;;;;;;6.65;2.65;;;;;;;14.18;81.60;101652.91;4918193;29;20070;-83
2022/05/26 00:27:20;;;;;;;5.53;2.92;;;;;;;14.19;81.63;101659.88;4932758;29;20062;-83
2022/05/26 00:29:45;;;;;;;9.07;3.20;;;;;;;14.20;81.81;101664.22;4918221;29;20035;-83
2022/05/26 00:32:10;;;;;;;7.05;3.00;;;;;;;14.20;81.74;101660.72;4934488;29;20068;-83
2022/05/26 00:34:36;;;;;;;7.18;3.28;;;;;;;14.20;81.74;101661.56;4917973;29;20774;-83
2022/05/26 00:37:06;;;;;;;7.90;3.05;;;;;;;14.22;81.96;101666.75;4931628;29;20054;-82
2022/05/26 00:39:32;;;;;;;6.55;3.08;;;;;;;14.22;82.09;101670.22;4934370;29;20046;-81
2022/05/26 00:42:01;;;;;;;7.50;3.20;;;;;;;14.23;81.81;101671.06;4934108;29;20389;-82
2022/05/26 00:44:28;;;;;;;6.03;3.15;;;;;;;14.20;81.95;101673.97;4934459;29;20067;-88
2022/05/26 00:47:02;;;;;;;6.47;3.45;;;;;;;14.19;82.11;101667.81;4932627;29;20035;-88
2022/05/26 00:49:30;;;;;;;8.18;3.65;;;;;;;14.21;82.13;101668.53;4934687;29;20054;-83
2022/05/26 00:51:56;;;;;;;6.15;3.28;;;;;;;14.23;82.16;101671.06;4932929;29;20079;-82
2022/05/26 00:54:25;;;;;;;7.50;3.30;;;;;;;14.22;82.36;101670.22;4933052;28;20035;-82
2022/05/26 00:57:05;;;;;;;9.30;4.20;;;;;;;14.23;82.13;101671.91;4931435;29;20046;-82
2022/05/26 01:00:00;;;;;;;8.02;3.95;;;;;;;14.22;82.34;101670.22;4931144;29;20118;-83
2022/05/26 01:02:33;;;;;;;11.32;3.78;;;;;;;14.20;82.32;101674.81;4930658;29;20043;-82
2022/05/26 01:05:18;;;;;;;9.10;4.20;;;;;;;14.21;82.30;101657.13;4933419;29;20031;-82
2022/05/26 01:07:44;;;;;;;12.52;4.53;;;;;;;14.20;82.61;101666.03;4933193;29;20059;-82
2022/05/26 01:10:12;;;;;;;6.95;4.05;;;;;;;14.22;82.65;101670.22;4931448;29;20030;-82
2022/05/26 01:12:37;;;;;;;12.43;4.40;;;;;;;14.23;82.64;101671.91;4932981;29;20027;-82
2022/05/26 01:15:25;;;;;;;12.38;4.50;;;;;;;14.23;82.50;101676.38;4916027;29;20020;-83
2022/05/26 01:18:12;;;;;;;12.25;4.78;;;;;;;14.24;82.06;101676.25;4914327;29;20047;-81
2022/05/26 01:20:46;;;;;;;10.43;4.78;;;;;;;14.24;82.30;101670.97;4913935;29;20032;-83
2022/05/26 01:23:24;;;;;;;13.63;4.60;;;;;;;14.24;82.63;101667.47;4913662;29;20110;-83
2022/05/26 01:26:11;;;;;;;8.75;4.50;;;;;;;14.25;82.47;101680.59;4913682;29;20664;-83
2022/05/26 01:28:48;;;;;;;13.77;5.07;;;;;;;14.25;82.59;101685.03;4932473;29;20032;-82
2022/05/26 01:31:43;;;;;;;10.82;5.30;;;;;;;14.24;82.67;101684.19;4937335;29;20511;-82
2022/05/26 01:34:24;;;;;;;12.73;5.47;;;;;;;14.24;82.67;101689.50;4952368;28;20116;-83
2022/05/26 01:37:16;;;;;;;10.55;5.25;;;;;;;14.24;82.72;101686.84;4953007;29;20035;-83
2022/05/26 01:40:13;;;;;;;10.13;5.55;;;;;;;14.23;81.96;101679.88;4951392;29;20109;-83
2022/05/26 01:43:06;;;;;;;12.45;5.60;;;;;;;14.20;82.24;101677.44;4949513;29;20500;-82
2022/05/26 01:45:53;;;;;;;13.65;6.30;;;;;;;14.22;82.70;101686.13;4930650;29;20557;-82
2022/05/26 01:48:27;;;;;;;13.75;6.40;;;;;;;14.23;82.67;101693.09;4933145;29;20106;-81
2022/05/26 01:51:00;;;;;;;14.07;6.82;;;;;;;14.21;83.00;101695.03;4933185;29;20040;-88
2022/05/26 01:53:42;;;;;;;11.18;6.60;;;;;;;14.23;82.83;101693.09;4932523;29;20073;-82
2022/05/26 01:56:31;;;;;;;14.25;6.95;;;;;;;14.26;82.73;101707.91;4931679;29;20502;-82
2022/05/26 01:59:05;;;;;;;13.80;7.43;;;;;;;14.23;83.15;101706.34;4915272;29;20079;-82
2022/05/26 02:01:35;;;;;;;17.77;7.95;;;;;;;14.22;83.08;101707.28;4931181;29;20493;-82
2022/05/26 02:04:06;;;;;;;16.83;8.95;;;;;;;14.20;83.73;101709.22;4933139;29;20035;-89
2022/05/26 02:06:40;;;;;;;18.23;8.65;;;;;;;14.19;83.61;101704.88;4931544;29;20020;-89
2022/05/26 02:09:21;;;;;;;19.10;8.70;;;;;;;14.20;83.25;101709.22;4933323;29;20085;-88
2022/05/26 02:12:05;;;;;;;15.77;8.93;;;;;;;14.21;82.94;101710.91;4930768;29;20031;-89
2022/05/26 02:14:39;;;;;;;19.05;9.13;;;;;;;14.18;83.49;101713.78;4931574;29;20557;-83
2022/05/26 02:17:10;;;;;;;16.58;8.68;;;;;;;14.19;83.72;101719.91;4929597;29;20035;-88
2022/05/26 02:19:49;;;;;;;16.65;9.30;;;;;;;14.18;83.36;101715.59;4933783;29;20486;-88
2022/05/26 02:22:21;;;;;;;14.48;8.30;;;;;;;14.18;83.57;101734.94;4943938;29;20023;-87
2022/05/26 02:25:06;;;;;;;17.15;8.82;;;;;;;14.17;83.58;101724.47;4938343;29;20038;-87
2022/05/26 02:27:33;;;;;;;18.05;8.10;;;;;;;14.16;83.75;101733.38;4944663;29;20042;-87
2022/05/26 02:30:01;;;;;;;17.58;8.13;;;;;;;14.16;84.00;101728.94;4939362;29;20032;-82
2022/05/26 02:32:47;;;;;;;15.82;8.50;;;;;;;14.17;83.45;101730.63;4930048;29;20490;-81
2022/05/26 02:35:20;;;;;;;15.32;8.20;;;;;;;14.14;84.17;101738.78;4929798;29;20067;-81
2022/05/26 02:37:47;;;;;;;;;;;;;;;14.20;82.20;101735.69;4933566;29;20023;-85
2022/05/26 02:40:13;;;;;;;16.77;8.82;;;;;;;14.14;83.88;101735.31;4946181;29;19918;-86
2022/05/26 02:42:50;;;;;;;18.75;8.98;;;;;;;14.15;83.82;101737.84;4936584;29;20031;-82
2022/05/26 02:45:25;;;;;;;16.80;8.15;;;;;;;14.14;83.96;101741.44;4935666;29;20094;-82
2022/05/26 02:48:23;;;;;;;14.93;8.55;;;;;;;14.15;83.56;101740.47;4954048;29;20453;-81
2022/05/26 02:51:08;;;;;;;19.35;8.95;;;;;;;14.10;84.40;101739.97;4938186;29;20336;-81
2022/05/26 02:53:40;;;;;;;17.42;9.10;;;;;;;14.11;84.21;101741.66;4935965;29;20405;-81
2022/05/26 02:56:17;;;;;;;20.90;9.60;;;;;;;14.09;84.26;101743.59;4935502;29;20434;-81
2022/05/26 02:59:11;;;;;;;20.77;9.35;;;;;;;14.11;84.15;101741.66;4918980;29;20032;-82
2022/05/26 03:01:43;;;;;;;26.30;9.93;;;;;;;14.10;84.40;101739.97;4916742;29;20027;-82
2022/05/26 03:04:18;;;;;;;19.10;9.88;;;;;;;14.10;84.42;101742.63;4915345;29;20118;-82
2022/05/26 03:06:49;;;;;;;23.45;10.25;;;;;;;14.08;84.36;101747.19;4933221;29;20028;-82
2022/05/26 03:09:16;;;;;;;25.58;10.45;;;;;;;14.07;84.28;101741.06;4935284;29;20078;-82
2022/05/26 03:11:49;;;;;;;18.92;9.63;;;;;;;14.04;84.78;101743.94;4935449;29;20035;-82
2022/05/26 03:14:17;;;;;;;26.15;11.05;;;;;;;14.04;84.76;101748.38;4935851;29;20031;-82
2022/05/26 03:16:43;;;;;;;22.08;10.15;;;;;;;14.03;84.77;101750.19;4933545;29;20028;-82
2022/05/26 03:19:09;;;;;;;29.20;10.77;;;;;;;14.02;84.72;101747.66;4938054;29;20034;-82
2022/05/26 03:21:35;;;;;;;25.92;10.85;;;;;;;14.02;84.69;101748.50;4936834;29;20023;-83
2022/05/26 03:24:00;;;;;;;20.10;9.98;;;;;;;14.00;84.90;101754.81;4943879;29;20031;-82
2022/05/26 03:26:26;;;;;;;22.02;10.50;;;;;;;13.99;85.02;101755.78;4933591;29;20028;-81
2022/05/26 03:28:51;;;;;;;30.83;10.93;;;;;;;13.97;85.08;101755.06;4933446;29;20039;-83
2022/05/26 03:31:17;;;;;;;23.75;10.00;;;;;;;13.95;85.33;101756.97;4934649;29;20038;-82
2022/05/26 03:41:55;;;;;;;21.83;9.13;;;;;;;13.91;85.48;101772.22;4934159;29;20506;-81
2022/05/26 03:44:21;;;;;;;24.60;10.48;;;;;;;13.89;85.51;101770.66;4934144;29;20024;-88
2022/05/26 03:46:48;;;;;;;18.75;8.70;;;;;;;13.85;85.56;101775.31;4934032;29;20020;-82
2022/05/26 03:49:14;;;;;;;24.10;9.32;;;;;;;13.88;85.42;101779.56;4934865;29;20034;-81
2022/05/26 03:51:39;;;;;;;26.67;9.60;;;;;;;13.86;85.58;101776.16;4931780;29;20052;-82
2022/05/26 03:54:05;;;;;;;23.90;9.35;;;;;;;13.85;85.74;101774.47;4934748;29;20470;-82
2022/05/26 03:56:30;;;;;;;24.23;9.32;;;;;;;13.79;85.79;101779.28;4932593;29;20035;-82
2022/05/26 03:58:55;;;;;;;25.33;9.15;;;;;;;13.80;85.61;101780.97;4933373;29;20055;-82
2022/05/26 04:01:22;;;;;;;23.90;8.52;;;;;;;13.78;85.67;101788.16;4923467;29;20460;-82
2022/05/26 04:03:49;;;;;;;21.67;8.45;;;;;;;13.77;85.53;101786.47;4934041;29;20055;-89
2022/05/26 04:06:15;;;;;;;27.95;8.80;;;;;;;13.72;85.61;101791.25;4943224;29;20035;-81
2022/05/26 04:08:40;;;;;;;27.90;8.70;;;;;;;13.69;85.75;101786.19;4952417;29;20038;-81
2022/05/26 04:11:06;;;;;;;26.88;8.55;;;;;;;13.69;86.15;101794.13;4939903;29;20494;-82
2022/05/26 04:13:32;;;;;;;25.45;8.40;;;;;;;13.66;86.16;101794.34;4933749;29;20028;-81
2022/05/26 04:15:57;;;;;;;22.92;8.88;;;;;;;13.65;86.29;101795.31;4933013;29;20443;-89
2022/05/26 04:18:23;;;;;;;24.40;8.48;;;;;;;13.68;86.25;101803.00;4916037;29;20028;-81
2022/05/26 04:20:48;;;;;;;28.63;8.32;;;;;;;13.70;85.97;101790.53;4914612;29;20028;-82
2022/05/26 04:23:14;;;;;;;28.13;8.27;;;;;;;13.69;85.88;101799.41;4899113;29;20506;-88
2022/05/26 04:25:39;;;;;;;19.67;7.35;;;;;;;13.71;85.85;101802.78;4914886;29;20028;-82
2022/05/26 04:28:04;;;;;;;27.83;8.60;;;;;;;13.74;86.18;101813.16;4919745;29;20586;-82
2022/05/26 04:30:34;;;;;;;23.95;7.50;;;;;;;13.75;85.80;101820.13;4920836;29;20042;-82
2022/05/26 04:32:59;;;;;;;27.13;8.07;;;;;;;13.73;86.01;101806.16;4934318;29;20581;-82
2022/05/26 04:35:24;;;;;;;27.73;7.93;;;;;;;13.79;86.15;101812.81;4933555;29;20173;-82
2022/05/26 04:37:50;;;;;;;25.20;8.45;;;;;;;13.78;86.15;101814.63;4931855;29;20027;-82
2022/05/26 04:40:15;;;;;;;23.55;7.78;;;;;;;13.80;85.84;101812.69;4934050;29;20110;-82
2022/05/26 04:42:41;;;;;;;19.63;7.45;;;;;;;13.85;85.97;101812.38;4933687;29;20404;-88
2022/05/26 04:45:10;;;;;;;23.15;7.90;;;;;;;13.85;85.84;101814.16;4952670;29;20031;-82
2022/05/26 04:47:36;;;;;;;25.60;7.70;;;;;;;13.89;85.87;101818.28;4930514;29;20115;-81
2022/05/26 04:50:02;;;;;;;20.38;7.70;;;;;;;13.86;85.79;101829.09;4914963;29;20127;-82
2022/05/26 04:52:30;;;;;;;23.15;7.65;;;;;;;13.89;85.68;101829.72;4914662;29;20052;-82
2022/05/26 04:54:56;;;;;;;29.17;8.45;;;;;;;13.92;85.79;101828.63;4927563;29;20023;-89
2022/05/26 04:57:23;;;;;;;26.88;7.75;;;;;;;13.92;85.86;101833.94;4952694;29;20089;-82
2022/05/26 04:59:49;;;;;;;24.02;7.97;;;;;;;13.97;85.27;101834.44;4950482;29;20512;-82
2022/05/26 05:02:16;;;;;;;19.20;7.28;;;;;;;13.98;85.56;101844.06;4951043;29;20098;-82
2022/05/26 05:04:44;;;;;;;23.70;7.40;;;;;;;14.03;85.55;101850.75;4932729;29;20058;-81
2022/05/26 05:07:10;;;;;;;27.85;8.13;;;;;;;14.06;85.28;101850.50;4944043;28;20027;-82
2022/05/26 05:09:38;;;;;;;26.65;7.82;;;;;;;14.06;85.51;101857.63;4948104;29;20027;-82
2022/05/26 05:12:04;;;;;;;18.73;7.03;;;;;;;14.08;85.16;101858.34;4933937;29;20459;-81
2022/05/26 05:14:36;;;;;;;22.77;7.38;;;;;;;14.10;84.93;101861.72;4915391;29;20034;-82
2022/05/26 05:17:02;;;;;;;22.52;7.65;;;;;;;14.11;84.78;101858.97;4913983;29;20438;-82
2022/05/26 05:19:27;;;;;;;29.38;8.45;;;;;;;14.15;84.90;101858.75;4901908;29;20086;-82
2022/05/26 05:21:59;;;;;;;29.35;8.25;;;;;;;14.19;84.83;101865.50;4932058;29;20488;-89
2022/05/26 05:24:38;;;;;;;18.95;7.15;;;;;;;14.27;84.52;101865.78;4933435;29;20024;-82
2022/05/26 05:27:13;;;;;;;25.48;8.40;;;;;;;14.31;84.44;101870.72;4933580;29;20462;-81
2022/05/26 05:29:41;;;;;;;27.05;8.85;;;;;;;14.30;84.28;101876.97;4919221;29;20070;-82
2022/05/26 05:32:17;;;;;;;21.58;7.32;;;;;;;14.36;84.51;101878.34;4932364;29;20520;-90
2022/05/26 05:34:51;;;;;;;26.75;7.75;;;;;;;14.37;84.21;101882.66;4931651;29;20016;-82
2022/05/26 05:37:17;;;;;;;20.30;7.45;;;;;;;14.40;83.90;101880.63;4931909;29;20111;-82
2022/05/26 05:39:42;;;;;;;24.20;7.80;;;;;;;14.44;83.93;101880.47;4932998;29;20541;-81
2022/05/26 05:42:08;;;;;;;26.25;7.68;;;;;;;14.48;83.69;101880.13;4932573;29;20023;-89
2022/05/26 05:44:34;;;;;;;24.17;7.47;;;;;;;14.52;83.92;101883.41;4932064;29;20032;-82
2022/05/26 05:47:01;;;;;;;25.95;7.95;;;;;;;14.57;83.37;101886.53;4933238;29;20482;-81
2022/05/26 05:49:29;;;;;;;23.15;7.80;;;;;;;14.58;83.44;101885.59;4916548;29;20520;-88
2022/05/26 05:51:57;;;;;;;19.83;7.47;;;;;;;14.62;82.96;101895.00;4933675;29;20158;-82
2022/05/26 05:54:23;;;;;;;21.75;7.32;;;;;;;14.66;83.04;101891.16;4942713;29;20102;-82
2022/05/26 05:56:49;;;;;;;23.10;7.45;;;;;;;14.71;82.74;101895.16;4932132;29;20234;-82
2022/05/26 05:59:15;;;;;;;24.30;7.85;;;;;;;14.71;82.56;101891.66;4932339;29;20019;-81
2022/05/26 06:01:41;;;;;;;26.48;8.18;;;;;;;14.75;82.42;101895.75;4932696;29;20393;-82
2022/05/26 06:04:06;;;;;;;20.67;8.10;;;;;;;14.81;82.59;101899.75;4928496;29;20074;-82
2022/05/26 06:06:41;;;;;;;23.73;7.93;;;;;;;14.89;82.42;101903.53;4928839;29;20122;-82
2022/05/26 06:09:08;;;;;;;22.85;7.93;;;;;;;14.98;82.12;101908.13;4934717;29;20314;-82
2022/05/26 06:11:33;;;;;;;22.63;7.88;;;;;;;15.10;81.56;101908.16;4934507;29;20102;-82
2022/05/26 06:14:00;;;;;;;21.30;7.90;;;;;;;15.14;81.31;101913.09;4931457;29;20032;-82
2022/05/26 06:16:25;;;;;;;22.23;8.13;;;;;;;15.16;80.97;101921.78;4931293;29;20019;-82
2022/05/26 06:18:51;;;;;;;26.15;9.25;;;;;;;15.24;80.40;101919.44;4931057;29;20532;-83
2022/05/26 06:21:17;;;;;;;23.38;8.55;;;;;;;15.29;80.42;101921.72;4928338;29;20106;-89
2022/05/26 06:23:43;;;;;;;25.38;9.18;;;;;;;15.31;80.09;101925.94;4940189;29;20489;-82
2022/05/26 06:26:11;;;;;;;23.63;9.20;;;;;;;15.26;79.87;101922.81;4940770;29;20550;-82
2022/05/26 06:31:22;;;;;;;23.83;9.82;;;;;;;15.36;80.39;101938.84;4942857;29;20090;-83
2022/05/26 06:39:19;;;;;;;25.90;10.13;;;;;;;15.73;79.33;101936.03;4941099;29;20186;-82
2022/05/26 06:44:30;;;;;;;22.10;10.52;;;;;;;15.85;77.49;101940.38;4934102;29;20066;-89
2022/05/26 06:46:55;;;;;;;31.02;10.75;;;;;;;15.95;77.16;101946.63;4934053;29;20059;-82
2022/05/26 06:49:20;;;;;;;22.25;10.93;;;;;;;16.01;77.11;101940.88;4933500;29;20043;-82
2022/05/26 06:51:46;;;;;;;25.90;11.70;;;;;;;15.97;76.26;101942.88;4934306;29;20052;-82
2022/05/26 06:54:11;;;;;;;26.55;11.57;;;;;;;15.96;76.51;101948.31;4925930;29;20019;-82
2022/05/26 06:56:37;;;;;;;23.95;10.90;;;;;;;15.94;76.53;101950.25;4928548;29;20047;-82
2022/05/26 06:59:03;;;;;;;23.25;11.27;;;;;;;16.06;76.47;101951.13;4931113;29;20053;-80
2022/05/26 07:01:32;;;;;;;24.50;10.90;;;;;;;16.07;75.51;101951.00;4932990;29;22746;-82
2022/05/26 07:03:58;;;;;;;23.25;9.90;;;;;;;16.06;76.16;101948.47;4935141;29;20106;-82
2022/05/26 07:06:27;;;;;;;25.17;10.25;;;;;;;16.25;74.81;101953.97;4933117;29;20446;-82
2022/05/26 07:08:53;;;;;;;18.80;9.23;;;;;;;16.29;73.06;101950.09;4932601;29;20043;-90
2022/05/26 07:11:19;;;;;;;18.13;8.88;;;;;;;16.49;73.11;101959.13;4932282;29;20019;-88
2022/05/26 07:13:48;;;;;;;22.15;9.35;;;;;;;16.59;72.79;101968.03;4931327;29;20647;-82
2022/05/26 07:16:15;;;;;;;22.20;9.77;;;;;;;16.66;72.46;101968.41;4927860;29;20078;-83
2022/05/26 07:18:42;;;;;;;22.83;9.55;;;;;;;16.63;71.89;101969.47;4945536;23;20055;-83
2022/05/26 07:21:09;;;;;;;16.70;9.10;;;;;;;16.54;71.75;101975.53;4954430;28;20054;-90
2022/05/26 07:23:35;;;;;;;17.00;9.15;;;;;;;16.65;70.90;101975.50;4948039;28;20126;-83
2022/05/26 07:26:05;;;;;;;18.85;9.18;;;;;;;16.89;71.82;101978.84;4952373;28;20035;-83
2022/05/26 07:28:33;;;;;;;22.35;9.15;;;;;;;17.05;70.15;101985.56;4944002;28;20085;-82
2022/05/26 07:30:58;;;;;;;19.08;8.98;;;;;;;17.06;70.17;101977.44;4933034;28;20122;-88
2022/05/26 07:33:23;;;;;;;17.13;8.68;;;;;;;17.15;70.26;101975.81;4956490;28;20169;-82
2022/05/26 07:35:49;;;;;;;15.23;7.90;;;;;;;17.12;68.93;101986.72;4932733;28;20090;-83
2022/05/26 07:41:17;;;;;;;16.58;7.47;;;;;;;16.98;68.67;102000.34;4940468;28;20098;-82
2022/05/26 07:43:47;;;;;;;14.82;7.90;;;;;;;17.36;68.95;101992.66;4927677;29;20511;-83
2022/05/26 07:46:14;;;;;;;16.38;8.60;;;;;;;17.47;67.97;102000.56;4934568;29;20507;-82
2022/05/26 07:48:39;;;;;;;16.98;7.78;;;;;;;17.60;67.59;101996.84;4949406;29;20023;-82
2022/05/26 07:51:04;;;;;;;15.05;7.78;;;;;;;17.64;67.78;102000.97;4932092;29;20083;-82
2022/05/26 07:53:30;;;;;;;17.65;8.50;;;;;;;17.61;67.38;101998.53;4945463;28;20034;-82
2022/05/26 07:55:55;;;;;;;15.15;7.50;;;;;;;17.77;66.93;101996.31;4927769;29;20031;-82
2022/05/26 07:58:20;;;;;;;16.67;7.03;;;;;;;17.82;65.90;101991.44;4918953;29;20082;-82
2022/05/26 08:00:46;;;;;;;18.40;7.70;;;;;;;17.91;66.58;101992.44;4950512;29;20121;-78
2022/05/26 08:03:12;;;;;;;17.02;8.00;;;;;;;18.04;65.69;102001.06;4947001;28;20031;-78
2022/05/26 08:05:39;;;;;;;13.73;7.32;;;;;;;18.40;65.36;101996.97;4946559;29;20097;-88
2022/05/26 08:08:05;;;;;;;15.93;8.30;;;;;;;18.88;63.23;101996.28;4949938;29;20019;-88
2022/05/26 08:10:31;;;;;;;18.48;7.07;;;;;;;19.17;62.71;102004.25;4948711;29;20038;-78
2022/05/26 08:12:56;;;;;;;14.48;6.75;;;;;;;19.15;61.31;102004.41;4943700;29;20016;-78
2022/05/26 08:15:22;;;;;;;17.02;6.93;;;;;;;19.01;61.17;102007.50;4945622;29;20494;-78
2022/05/26 08:17:47;;;;;;;13.20;6.90;;;;;;;19.32;61.54;102001.03;4951412;28;20059;-78
2022/05/26 08:20:16;;;;;;;14.30;7.38;;;;;;;19.72;58.95;102002.69;4931416;29;20096;-82
2022/05/26 08:22:42;;;;;;;15.77;6.32;;;;;;;20.19;58.74;101999.97;4935248;28;20039;-83
2022/05/26 08:25:09;;;;;;;11.77;5.65;;;;;;;20.13;56.40;102000.56;4944492;28;20035;-82
2022/05/26 08:27:34;;;;;;;12.57;5.38;;;;;;;20.05;57.30;101998.63;4947450;29;20016;-82
2022/05/26 08:30:00;;;;;;;10.70;5.93;;;;;;;19.76;57.17;102004.06;4932709;29;20397;-83
2022/05/26 08:32:26;;;;;;;13.80;5.60;;;;;;;19.84;58.40;102017.53;4948412;28;20055;-82
2022/05/26 08:35:05;;;;;;;10.98;5.72;;;;;;;19.83;58.75;102007.84;4932674;29;20027;-83
2022/05/26 08:37:30;;;;;;;9.45;4.57;;;;;;;19.71;56.32;102012.53;4933943;29;20106;-83
2022/05/26 08:39:56;;;;;;;11.10;5.50;;;;;;;19.83;56.93;102015.03;4936314;29;20041;-83
2022/05/26 08:42:32;;;;;;;9.95;6.85;;;;;;;20.00;57.28;102015.09;4925099;29;20027;-83
2022/05/26 08:45:10;;;;;;;15.63;6.68;;;;;;;20.02;57.19;102023.81;4942951;28;20102;-83
2022/05/26 08:47:46;;;;;;;12.35;7.60;;;;;;;20.20;57.98;102015.03;4933038;28;20023;-82
2022/05/26 08:50:24;;;;;;;18.55;11.85;;;;;;;20.18;57.13;102014.34;4948133;28;20027;-83
2022/05/26 08:53:00;;;;;;;14.55;11.38;;;;;;;20.14;57.84;102026.31;4948483;28;20027;-84
2022/05/26 08:55:45;;;;;;;18.85;11.50;;;;;;;19.93;59.09;102022.00;4945499;28;20177;-83
2022/05/26 08:58:36;;;;;;;17.58;10.82;;;;;;;19.97;58.70;102033.25;4943810;29;20031;-82
2022/05/26 09:01:05;;;;;;;13.25;8.20;;;;;;;20.26;55.97;102023.28;4935329;29;20031;-83
2022/05/26 09:03:34;;;;;;;13.50;8.18;;;;;;;20.46;55.75;102029.44;4939944;29;20023;-90
2022/05/26 09:06:05;;;;;;;14.23;9.13;;;;;;;20.88;55.97;102023.53;4934708;29;20023;-91
2022/05/26 09:14:19;;;;;;;10.63;7.40;;;;;;;21.07;51.93;102027.88;4948877;29;20670;-83
2022/05/26 09:16:44;;;;;;;14.32;9.48;;;;;;;20.95;52.99;102021.94;4939608;29;20488;-85
2022/05/26 09:19:21;;;;;;;13.65;8.45;;;;;;;20.97;53.21;102033.31;4924446;29;20043;-79
2022/05/26 09:21:49;;;;;;;13.10;8.38;;;;;;;20.77;52.54;102026.41;4947754;29;20117;-91
2022/05/26 09:24:29;;;;;;;10.90;8.43;;;;;;;20.51;53.77;102035.16;4952526;28;20103;-91
2022/05/26 09:26:56;;;;;;;11.82;7.90;;;;;;;20.18;54.33;102041.06;4923146;29;20055;-81
2022/05/26 09:29:25;;;;;;;15.00;11.02;;;;;;;19.91;55.03;102045.34;4934448;29;20110;-81
2022/05/26 09:31:50;;;;;;;17.23;11.45;;;;;;;19.97;55.60;102049.28;4930758;29;20085;-80
2022/05/26 09:34:16;;;;;;;15.35;11.50;;;;;;;20.11;55.47;102056.00;4948461;29;20030;-80
2022/05/26 09:36:52;;;;;;;18.48;13.23;;;;;;;20.16;54.90;102059.06;4939159;29;20050;-80
2022/05/26 09:39:34;;;;;;;16.30;12.18;;;;;;;20.15;56.08;102065.41;4946877;28;20110;-80
2022/05/26 09:42:00;;;;;;;16.00;11.80;;;;;;;19.96;54.17;102063.63;4935515;29;20023;-80
2022/05/26 09:44:48;;;;;;;13.63;8.73;;;;;;;20.17;54.97;102066.09;4945376;29;20028;-80
2022/05/26 09:47:39;;;;;;;11.98;8.70;;;;;;;20.19;54.42;102056.94;4925829;29;20520;-81
2022/05/26 09:50:08;;;;;;;12.55;8.18;;;;;;;20.15;54.10;102063.56;4937338;29;20115;-81
2022/05/26 09:52:49;;;;;;;14.02;8.93;;;;;;;20.17;55.16;102066.09;4958065;29;20035;-81
2022/05/26 09:55:27;;;;;;;16.83;10.35;;;;;;;20.03;55.77;102065.59;4949822;28;20023;-81
2022/05/26 09:58:04;;;;;;;16.00;10.50;;;;;;;20.09;56.47;102066.00;4968573;29;20042;-81
2022/05/26 10:00:42;;;;;;;14.35;10.57;;;;;;;20.37;55.14;102064.19;4946722;29;20051;-80
2022/05/26 10:03:32;;;;;;;14.85;11.68;;;;;;;20.47;54.83;102063.19;4959470;29;20032;-90
2022/05/26 10:06:15;;;;;;;14.02;9.68;;;;;;;20.59;53.88;102064.69;4960666;29;20393;-79
2022/05/26 10:08:51;;;;;;;12.07;8.48;;;;;;;20.47;51.71;102068.53;4966621;29;20031;-81
2022/05/26 10:11:35;;;;;;;12.10;8.45;;;;;;;20.51;53.88;102069.94;4945111;29;20032;-80
2022/05/26 10:14:11;;;;;;;11.55;7.72;;;;;;;20.81;51.79;102070.59;4924564;29;20052;-81
2022/05/26 10:16:55;;;;;;;11.77;7.65;;;;;;;20.97;52.07;102076.13;4933330;29;20052;-80
2022/05/26 10:19:23;;;;;;;12.35;8.82;;;;;;;20.85;51.07;102072.84;4932213;29;20042;-81
2022/05/26 10:22:16;;;;;;;10.88;8.88;;;;;;;20.78;52.89;102073.56;4890698;29;20481;-81
2022/05/26 10:24:59;;;;;;;10.18;9.18;;;;;;;20.69;53.13;102080.66;4935777;29;20024;-81
2022/05/26 10:27:37;;;;;;;10.70;8.90;;;;;;;20.68;51.85;102070.13;4921442;29;20054;-80
2022/05/26 10:30:31;;;;;;;11.02;7.95;;;;;;;20.98;51.05;102071.63;4936607;29;20091;-89
2022/05/26 10:33:31;;;;;;;11.60;8.25;;;;;;;21.36;52.33;102071.38;4924983;29;20042;-80
2022/05/26 10:36:23;;;;;;;12.57;9.70;;;;;;;21.43;51.42;102072.44;4940203;29;20390;-90
2022/05/26 10:39:21;;;;;;;10.75;9.35;;;;;;;21.54;52.10;102074.00;4938755;29;20208;-82
2022/05/26 10:41:59;;;;;;;11.75;8.23;;;;;;;21.70;51.34;102067.97;4933404;29;20031;-82
2022/05/26 10:44:34;;;;;;;12.75;8.02;;;;;;;22.08;49.97;102077.47;4940924;29;20047;-81
2022/05/26 10:47:12;;;;;;;11.27;7.65;;;;;;;22.24;48.16;102071.34;4943861;29;20031;-81
2022/05/26 10:49:50;;;;;;;14.63;8.02;;;;;;;22.20;48.52;102065.47;4945772;29;20028;-82
2022/05/26 10:52:32;;;;;;;10.20;7.35;;;;;;;22.26;48.86;102070.19;4955377;28;20016;-85
2022/05/26 10:55:08;;;;;;;14.55;7.25;;;;;;;22.55;48.63;102068.97;4955306;28;20067;-84
2022/05/26 10:58:03;;;;;;;9.93;6.43;;;;;;;22.54;48.08;102068.13;4956701;28;20052;-85
2022/05/26 11:00:33;;;;;;;11.73;7.38;;;;;;;22.18;47.78;102073.66;4946031;28;20031;-85
2022/05/26 11:03:31;;;;;;;10.20;6.50;;;;;;;22.11;49.89;102077.16;4955397;28;20124;-85
2022/05/26 11:06:25;;;;;;;10.65;6.00;;;;;;;22.18;50.24;102078.19;4951906;28;20065;-85
2022/05/26 11:09:09;;;;;;;13.43;5.95;;;;;;;22.32;47.65;102074.91;4955788;29;20024;-84
2022/05/26 11:11:42;;;;;;;8.27;6.35;;;;;;;22.45;47.33;102083.34;4950305;29;20927;-85
2022/05/26 11:17:24;;;;;;;9.48;6.65;;;;;;;22.14;47.13;102080.34;4956666;28;20062;-87
2022/05/26 11:20:01;;;;;;;11.70;7.25;;;;;;;21.96;48.71;102074.16;4960112;28;20066;-86
2022/05/26 11:22:27;;;;;;;8.98;6.97;;;;;;;21.83;48.18;102079.94;4960871;28;20138;-86
2022/05/26 11:24:56;;;;;;;12.65;7.28;;;;;;;21.59;48.23;102077.91;4943701;28;20016;-86
2022/05/26 11:27:36;;;;;;;9.32;7.10;;;;;;;21.46;49.23;102068.59;4960683;28;20015;-86
2022/05/26 11:36:07;;;;;;;9.68;6.90;;;;;;;21.33;49.39;102073.50;4950693;28;20023;-84
2022/05/26 11:38:44;;;;;;;9.65;7.45;;;;;;;20.76;49.64;102064.84;4944753;29;20051;-82
2022/05/26 11:41:14;;;;;;;9.40;6.40;;;;;;;20.56;49.97;102067.66;4949667;29;20051;-92
2022/05/26 11:44:03;;;;;;;11.70;7.78;;;;;;;20.27;51.39;102062.38;4923738;29;20055;-89
2022/05/26 11:47:11;;;;;;;9.85;8.40;;;;;;;20.08;51.57;102069.66;4951552;29;20124;-85
2022/05/26 11:49:57;;;;;;;9.40;8.15;;;;;;;20.08;52.09;102062.47;4931183;29;20035;-93
2022/05/26 11:52:23;;;;;;;13.13;7.97;;;;;;;20.28;51.65;102055.22;4938483;29;20019;-86
2022/05/26 11:54:52;;;;;;;11.95;8.57;;;;;;;20.56;51.82;102045.41;4937110;29;20397;-91
2022/05/26 11:57:43;;;;;;;11.70;8.02;;;;;;;20.91;52.14;102040.13;4924461;29;20022;-82
2022/05/26 12:00:15;;;;;;;12.52;8.18;;;;;;;20.99;49.81;102041.19;4954006;28;20028;-85
2022/05/26 12:02:45;;;;;;;10.07;7.10;;;;;;;21.19;49.99;102038.19;4939410;29;20038;-84
2022/05/26 12:05:29;;;;;;;9.93;6.10;;;;;;;21.48;50.60;102042.50;4956272;28;20027;-92
2022/05/26 12:08:25;;;;;;;8.50;5.80;;;;;;;21.65;49.22;102044.31;4960538;29;20034;-86
2022/05/26 12:10:54;;;;;;;9.98;5.60;;;;;;;21.72;48.85;102028.47;4958781;29;20035;-84
2022/05/26 12:13:35;;;;;;;7.97;5.07;;;;;;;21.70;48.27;102042.00;4964441;28;20004;-84
2022/05/26 12:16:38;;;;;;;7.97;4.45;;;;;;;21.64;49.64;102041.81;4957882;28;20075;-84